createdAt,value
2022-11-25T00:01:32.284Z,3.55
2022-11-25T00:04:00.350Z,2.72
2022-11-25T00:06:33.626Z,3.10
2022-11-25T00:09:06.652Z,2.88
2022-11-25T00:11:39.483Z,2.50
2022-11-25T00:14:07.749Z,2.90
2022-11-25T00:16:35.751Z,2.08
2022-11-25T00:19:02.499Z,2.30
2022-11-25T00:21:33.970Z,2.40
2022-11-25T00:24:04.481Z,2.83
2022-11-25T00:26:32.746Z,2.47
2022-11-25T00:29:03.139Z,2.53
2022-11-25T00:31:36.113Z,3.03
2022-11-25T00:34:03.613Z,2.35
2022-11-25T00:36:39.765Z,2.60
2022-11-25T00:39:16.465Z,2.38
2022-11-25T00:42:02.940Z,2.42
2022-11-25T00:44:35.579Z,2.17
2022-11-25T00:47:12.061Z,2.03
2022-11-25T00:49:41.023Z,1.95
2022-11-25T00:52:09.179Z,2.45
2022-11-25T00:54:36.197Z,2.10
2022-11-25T00:57:03.137Z,2.30
2022-11-25T00:59:29.897Z,2.25
2022-11-25T01:01:56.956Z,2.47
2022-11-25T01:04:24.035Z,2.38
2022-11-25T01:06:50.756Z,2.00
2022-11-25T01:09:17.569Z,2.28
2022-11-25T01:11:44.353Z,2.13
2022-11-25T01:14:11.835Z,2.05
2022-11-25T01:16:38.760Z,2.55
2022-11-25T01:19:05.678Z,2.00
2022-11-25T01:21:34.509Z,2.15
2022-11-25T01:24:03.624Z,2.35
2022-11-25T01:26:32.284Z,2.45
2022-11-25T01:29:02.990Z,2.22
2022-11-25T01:31:34.427Z,2.25
2022-11-25T01:34:14.462Z,2.33
2022-11-25T01:36:41.831Z,2.28
2022-11-25T01:39:13.550Z,2.20
2022-11-25T01:41:40.265Z,2.72
2022-11-25T01:44:15.080Z,2.75
2022-11-25T01:47:09.574Z,2.75
2022-11-25T01:49:56.099Z,2.13
2022-11-25T01:52:27.764Z,3.38
2022-11-25T01:55:02.703Z,1.95
2022-11-25T01:57:44.044Z,2.05
2022-11-25T02:00:11.747Z,2.93
2022-11-25T02:02:38.654Z,2.42
2022-11-25T02:05:11.046Z,2.28
2022-11-25T02:07:41.361Z,2.65
2022-11-25T02:10:19.933Z,2.13
2022-11-25T02:12:47.321Z,1.80
2022-11-25T02:15:16.195Z,2.30
2022-11-25T02:17:44.354Z,2.25
2022-11-25T02:20:18.095Z,2.88
2022-11-25T02:23:17.372Z,2.63
2022-11-25T02:25:45.954Z,3.15
2022-11-25T02:28:34.009Z,2.13
2022-11-25T02:31:01.111Z,2.65
2022-11-25T02:33:28.526Z,2.45
2022-11-25T02:36:13.053Z,2.60
2022-11-25T02:38:51.948Z,2.20
2022-11-25T02:41:23.983Z,2.65
2022-11-25T02:46:22.784Z,1.95
2022-11-25T02:49:08.427Z,3.05
2022-11-25T02:51:37.065Z,2.08
2022-11-25T02:54:04.184Z,2.10
2022-11-25T02:56:34.470Z,2.58
2022-11-25T02:59:02.072Z,1.95
2022-11-25T03:01:31.267Z,2.30
2022-11-25T03:03:58.853Z,2.05
2022-11-25T03:06:25.606Z,1.88
2022-11-25T03:08:52.319Z,1.65
2022-11-25T03:11:19.064Z,2.30
2022-11-25T03:13:45.768Z,2.22
2022-11-25T03:16:12.670Z,1.80
2022-11-25T03:18:39.445Z,2.13
2022-11-25T03:21:07.335Z,2.33
2022-11-25T03:23:34.064Z,1.80
2022-11-25T03:26:06.528Z,1.70
2022-11-25T03:28:33.401Z,2.00
2022-11-25T03:31:00.140Z,1.77
2022-11-25T03:33:26.844Z,1.60
2022-11-25T03:35:53.549Z,1.88
2022-11-25T03:38:20.249Z,1.40
2022-11-25T03:40:47.876Z,1.98
2022-11-25T03:43:14.589Z,2.08
2022-11-25T03:45:41.385Z,1.63
2022-11-25T03:48:08.123Z,2.33
2022-11-25T03:50:34.837Z,1.52
2022-11-25T03:53:01.575Z,2.13
2022-11-25T03:55:28.303Z,1.67
2022-11-25T03:57:55.057Z,1.90
2022-11-25T04:00:22.000Z,2.72
2022-11-25T04:02:48.749Z,1.77
2022-11-25T04:05:15.547Z,1.70
2022-11-25T04:07:42.319Z,1.90
2022-11-25T04:10:09.666Z,1.58
2022-11-25T04:12:48.751Z,1.40
2022-11-25T04:15:17.376Z,1.58
2022-11-25T04:17:44.265Z,1.67
2022-11-25T04:20:12.530Z,1.10
2022-11-25T04:22:39.278Z,1.35
2022-11-25T04:25:07.996Z,1.63
2022-11-25T04:27:34.701Z,1.52
2022-11-25T04:30:01.491Z,1.70
2022-11-25T04:32:28.469Z,1.50
2022-11-25T04:34:55.181Z,1.50
2022-11-25T04:37:21.934Z,1.73
2022-11-25T04:39:48.765Z,1.98
2022-11-25T04:42:34.644Z,1.50
2022-11-25T04:45:23.415Z,1.40
2022-11-25T04:47:51.076Z,1.33
2022-11-25T04:50:22.254Z,1.20
2022-11-25T04:52:49.534Z,1.33
2022-11-25T04:55:16.511Z,0.93
2022-11-25T04:57:43.227Z,0.80
2022-11-25T05:00:11.378Z,1.25
2022-11-25T05:02:38.400Z,1.42
2022-11-25T05:05:06.287Z,1.40
2022-11-25T05:07:33.264Z,1.30
2022-11-25T05:10:00.140Z,1.65
2022-11-25T05:12:29.538Z,1.50
2022-11-25T05:14:57.128Z,1.55
2022-11-25T05:17:31.978Z,1.40
2022-11-25T05:19:59.109Z,1.67
2022-11-25T05:22:29.953Z,1.55
2022-11-25T05:24:57.498Z,1.40
2022-11-25T05:27:26.023Z,2.03
2022-11-25T05:29:55.941Z,1.85
2022-11-25T05:32:23.764Z,1.63
2022-11-25T05:34:50.585Z,1.52
2022-11-25T05:37:21.296Z,2.13
2022-11-25T06:03:29.428Z,1.38
2022-11-25T06:05:57.416Z,1.58
2022-11-25T06:08:24.535Z,1.30
2022-11-25T06:10:52.044Z,1.33
2022-11-25T06:13:19.622Z,1.98
2022-11-25T06:15:47.356Z,1.20
2022-11-25T06:18:16.577Z,1.55
2022-11-25T06:20:44.025Z,2.10
2022-11-25T06:23:10.956Z,1.73
2022-11-25T06:25:37.761Z,1.50
2022-11-25T06:28:12.738Z,1.20
2022-11-25T06:30:40.037Z,1.48
2022-11-25T06:33:06.972Z,1.42
2022-11-25T06:35:33.729Z,1.73
2022-11-25T06:38:00.667Z,1.40
2022-11-25T06:40:27.638Z,1.88
2022-11-25T06:42:54.495Z,1.63
2022-11-25T06:45:21.283Z,1.30
2022-11-25T06:47:48.132Z,1.48
2022-11-25T06:50:15.231Z,1.13
2022-11-25T06:52:42.042Z,1.08
2022-11-25T06:55:09.512Z,1.60
2022-11-25T06:57:36.349Z,1.40
2022-11-25T07:00:04.530Z,1.90
2022-11-25T07:02:36.173Z,1.30
2022-11-25T07:05:08.061Z,1.83
2022-11-25T07:07:36.715Z,1.23
2022-11-25T07:10:04.796Z,1.38
2022-11-25T07:12:32.170Z,1.48
2022-11-25T07:15:00.148Z,1.55
2022-11-25T07:17:27.611Z,0.93
2022-11-25T07:19:55.292Z,1.58
2022-11-25T07:22:23.654Z,1.50
2022-11-25T07:24:51.368Z,1.30
2022-11-25T07:27:19.080Z,1.73
2022-11-25T07:32:34.049Z,1.67
2022-11-25T07:35:00.866Z,1.80
2022-11-25T07:37:27.707Z,1.70
2022-11-25T07:39:54.728Z,1.98
2022-11-25T07:42:21.742Z,2.08
2022-11-25T07:44:49.080Z,2.08
2022-11-25T07:47:15.903Z,1.80
2022-11-25T07:49:42.697Z,2.13
2022-11-25T07:52:10.547Z,1.67
2022-11-25T07:54:37.439Z,1.90
2022-11-25T07:57:04.182Z,1.58
2022-11-25T07:59:30.954Z,1.63
2022-11-25T08:01:57.965Z,1.65
2022-11-25T08:04:25.022Z,1.70
2022-11-25T08:06:54.023Z,1.67
2022-11-25T08:09:23.771Z,2.35
2022-11-25T08:11:51.151Z,1.77
2022-11-25T08:14:19.332Z,1.20
2022-11-25T08:16:47.464Z,2.30
2022-11-25T08:19:18.155Z,2.17
2022-11-25T08:21:48.484Z,1.42
2022-11-25T08:24:21.497Z,1.30
2022-11-25T08:26:48.834Z,1.52
2022-11-25T08:29:18.411Z,1.63
2022-11-25T08:31:45.650Z,1.60
2022-11-25T08:34:20.897Z,1.90
2022-11-25T08:36:48.769Z,1.83
2022-11-25T08:39:44.049Z,1.30
2022-11-25T08:42:07.455Z,1.75
2022-11-25T08:44:34.889Z,1.83
2022-11-25T08:47:02.496Z,1.42
2022-11-25T08:49:32.731Z,2.00
2022-11-25T08:52:03.319Z,1.90
2022-11-25T08:54:30.710Z,1.70
2022-11-25T08:56:57.879Z,1.80
2022-11-25T08:59:25.279Z,1.80
2022-11-25T09:01:52.532Z,1.77
2022-11-25T09:04:19.924Z,2.00
2022-11-25T09:06:49.799Z,2.05
2022-11-25T09:09:17.018Z,2.00
2022-11-25T09:11:44.106Z,2.10
2022-11-25T09:14:11.080Z,1.67
2022-11-25T09:16:39.021Z,1.88
2022-11-25T09:19:07.302Z,2.03
2022-11-25T09:21:35.221Z,1.58
2022-11-25T09:24:03.096Z,2.10
2022-11-25T09:26:35.994Z,1.85
2022-11-25T09:29:04.377Z,2.05
2022-11-25T09:31:32.020Z,2.08
2022-11-25T09:33:59.394Z,2.33
2022-11-25T09:36:26.695Z,2.03
2022-11-25T09:38:53.546Z,1.90
2022-11-25T09:42:15.474Z,2.55
2022-11-25T09:46:04.876Z,1.70
2022-11-25T09:49:01.028Z,2.25
2022-11-25T09:51:59.087Z,2.15
2022-11-25T09:54:37.783Z,1.92
2022-11-25T09:57:53.920Z,2.28
2022-11-25T10:00:25.953Z,1.98
2022-11-25T10:03:45.017Z,1.90
2022-11-25T10:06:25.300Z,1.98
2022-11-25T10:09:10.625Z,2.20
2022-11-25T10:11:44.400Z,1.85
2022-11-25T10:14:59.835Z,2.28
2022-11-25T10:17:38.886Z,2.30
2022-11-25T10:20:21.670Z,2.13
2022-11-25T10:23:16.601Z,2.20
2022-11-25T10:25:59.363Z,1.90
2022-11-25T10:28:33.224Z,2.45
2022-11-25T10:31:10.284Z,1.80
2022-11-25T10:33:51.064Z,3.15
2022-11-25T10:36:31.498Z,2.25
2022-11-25T10:39:14.052Z,2.30
2022-11-25T10:42:27.430Z,2.10
2022-11-25T10:44:56.997Z,2.00
2022-11-25T10:47:45.730Z,2.15
2022-11-25T10:51:17.780Z,2.42
2022-11-25T10:54:13.369Z,2.05
2022-11-25T10:56:56.784Z,2.60
2022-11-25T10:59:38.725Z,2.58
2022-11-25T11:02:27.320Z,3.28
2022-11-25T11:05:09.603Z,2.00
2022-11-25T11:07:41.502Z,1.80
2022-11-25T11:13:21.093Z,2.25
2022-11-25T11:15:48.756Z,2.40
2022-11-25T11:18:30.728Z,2.45
2022-11-25T11:21:00.004Z,2.50
2022-11-25T11:23:28.888Z,2.42
2022-11-25T11:26:09.618Z,2.47
2022-11-25T11:28:37.029Z,3.05
2022-11-25T11:31:18.895Z,1.95
2022-11-25T11:33:54.548Z,2.40
2022-11-25T11:37:00.994Z,2.50
2022-11-25T11:39:50.797Z,2.22
2022-11-25T11:42:41.196Z,2.95
2022-11-25T11:45:49.943Z,2.47
2022-11-25T11:48:19.471Z,1.90
2022-11-25T11:51:08.532Z,2.25
2022-11-25T11:54:06.955Z,1.80
2022-11-25T11:56:55.216Z,3.20
2022-11-25T11:59:34.382Z,2.13
2022-11-25T12:02:55.157Z,2.00
2022-11-25T12:05:28.188Z,2.67
2022-11-25T12:08:20.191Z,1.88
2022-11-25T12:11:10.672Z,1.90
2022-11-25T12:14:01.159Z,1.90
2022-11-25T12:16:36.783Z,1.92
2022-11-25T12:19:14.349Z,2.08
2022-11-25T12:22:03.694Z,1.80
2022-11-25T12:24:39.535Z,2.35
2022-11-25T12:27:20.237Z,2.00
2022-11-25T12:30:11.645Z,1.83
2022-11-25T12:32:38.518Z,1.67
2022-11-25T12:35:11.219Z,1.90
2022-11-25T12:38:04.433Z,1.90
2022-11-25T12:40:47.692Z,1.77
2022-11-25T12:43:35.157Z,1.60
2022-11-25T12:46:29.815Z,1.63
2022-11-25T12:48:58.842Z,1.50
2022-11-25T12:51:51.713Z,1.88
2022-11-25T12:54:43.670Z,2.50
2022-11-25T12:57:49.063Z,1.73
2022-11-25T13:00:42.239Z,1.85
2022-11-25T13:03:56.694Z,1.55
2022-11-25T13:06:53.710Z,1.90
2022-11-25T13:09:57.458Z,1.70
2022-11-25T13:12:54.242Z,1.58
2022-11-25T13:15:33.613Z,2.08
2022-11-25T13:18:13.122Z,1.70
2022-11-25T13:20:49.022Z,2.33
2022-11-25T13:23:18.752Z,1.50
2022-11-25T13:25:50.591Z,1.85
2022-11-25T13:31:35.164Z,1.58
2022-11-25T13:34:20.692Z,1.50
2022-11-25T13:36:53.961Z,1.70
2022-11-25T13:43:30.584Z,1.42
2022-11-25T13:45:57.475Z,1.27
2022-11-25T13:48:30.860Z,1.20
2022-11-25T13:51:27.468Z,1.60
2022-11-25T13:54:05.395Z,1.42
2022-11-25T13:56:37.314Z,1.27
2022-11-25T14:01:46.475Z,1.88
2022-11-25T14:04:15.730Z,1.38
2022-11-25T14:07:19.989Z,1.48
2022-11-25T14:10:03.620Z,1.55
2022-11-25T14:12:57.809Z,1.40
2022-11-25T14:15:47.788Z,1.20
2022-11-25T14:19:16.901Z,1.30
2022-11-25T14:21:59.006Z,1.50
2022-11-25T14:24:49.618Z,1.58
2022-11-25T14:27:22.599Z,1.30
2022-11-25T14:30:10.410Z,1.60
2022-11-25T14:33:04.430Z,1.33
2022-11-25T14:35:53.708Z,1.33
2022-11-25T14:38:27.933Z,1.50
2022-11-25T14:41:07.111Z,1.83
2022-11-25T14:43:43.729Z,1.60
2022-11-25T14:46:21.202Z,1.48
2022-11-25T14:49:00.029Z,1.00
2022-11-25T14:51:34.555Z,1.98
2022-11-25T14:54:01.424Z,1.40
2022-11-25T14:56:33.112Z,1.38
2022-11-25T14:59:01.331Z,2.03
2022-11-25T15:01:31.756Z,1.98
2022-11-25T15:04:05.076Z,2.03
2022-11-25T15:06:42.476Z,1.42
2022-11-25T15:09:38.786Z,1.23
2022-11-25T15:12:13.924Z,1.90
2022-11-25T15:14:44.129Z,1.63
2022-11-25T15:17:40.579Z,1.30
2022-11-25T15:20:17.502Z,1.30
2022-11-25T15:22:49.844Z,1.48
2022-11-25T15:25:18.908Z,1.30
2022-11-25T15:27:50.290Z,1.38
2022-11-25T15:30:29.206Z,1.33
2022-11-25T15:32:57.071Z,1.55
2022-11-25T15:35:26.591Z,1.35
2022-11-25T15:37:56.550Z,1.60
2022-11-25T15:40:36.904Z,1.50
2022-11-25T15:43:18.620Z,2.75
2022-11-25T15:45:48.419Z,3.60
2022-11-25T15:48:34.674Z,2.88
2022-11-25T15:51:32.276Z,2.17
2022-11-25T15:54:12.980Z,5.75
2022-11-25T15:56:47.217Z,5.38
2022-11-25T15:59:46.050Z,2.90
2022-11-25T16:02:39.429Z,3.00
2022-11-25T16:05:12.138Z,2.42
2022-11-25T16:07:51.642Z,2.80
2022-11-25T16:10:44.744Z,3.13
2022-11-25T16:13:25.771Z,3.35
2022-11-25T16:16:24.277Z,3.60
2022-11-25T16:19:15.121Z,4.05
2022-11-25T16:21:59.794Z,3.83
2022-11-25T16:24:35.527Z,3.30
2022-11-25T16:27:06.206Z,2.80
2022-11-25T16:29:38.398Z,2.92
2022-11-25T16:32:18.816Z,3.20
2022-11-25T16:34:46.250Z,3.38
2022-11-25T16:37:13.668Z,2.83
2022-11-25T16:39:40.583Z,2.47
2022-11-25T16:42:16.748Z,3.92
2022-11-25T16:44:48.875Z,3.42
2022-11-25T16:49:44.027Z,3.20
2022-11-25T16:52:11.443Z,3.15
2022-11-25T16:54:39.950Z,3.53
2022-11-25T16:57:07.887Z,3.80
2022-11-25T16:59:42.157Z,3.47
2022-11-25T17:02:20.038Z,3.40
2022-11-25T17:04:48.117Z,3.47
2022-11-25T17:07:32.656Z,3.90
2022-11-25T17:10:00.362Z,4.03
2022-11-25T17:12:32.759Z,3.85
2022-11-25T17:15:01.250Z,3.70
2022-11-25T17:17:28.698Z,3.55
2022-11-25T17:19:55.640Z,3.35
2022-11-25T17:22:26.140Z,4.70
2022-11-25T17:24:53.821Z,4.80
2022-11-25T17:27:27.835Z,4.43
2022-11-25T17:29:57.592Z,5.00
2022-11-25T17:32:25.719Z,4.82
2022-11-25T17:34:52.981Z,6.55
2022-11-25T17:37:23.660Z,6.68
2022-11-25T17:39:55.382Z,5.65
2022-11-25T17:42:30.582Z,5.70
2022-11-25T17:44:57.925Z,4.93
2022-11-25T17:47:24.876Z,5.05
2022-11-25T17:49:53.362Z,4.63
2022-11-25T17:52:20.436Z,4.18
2022-11-25T17:54:47.187Z,4.97
2022-11-25T17:57:21.269Z,6.10
2022-11-25T17:59:48.546Z,6.47
2022-11-25T18:02:21.584Z,4.95
2022-11-25T18:04:49.634Z,4.95
2022-11-25T18:07:17.092Z,5.32
2022-11-25T18:09:47.178Z,4.85
2022-11-25T18:12:31.053Z,5.18
2022-11-25T18:14:59.391Z,4.82
2022-11-25T18:17:28.418Z,4.57
2022-11-25T18:19:56.964Z,4.45
2022-11-25T18:22:24.848Z,4.32
2022-11-25T18:24:54.997Z,3.90
2022-11-25T18:27:29.234Z,4.13
2022-11-25T18:29:58.224Z,4.45
2022-11-25T18:32:26.855Z,4.32
2022-11-25T18:34:54.161Z,3.33
2022-11-25T18:37:21.792Z,3.97
2022-11-25T18:39:49.248Z,3.80
2022-11-25T18:42:27.306Z,3.92
2022-11-25T18:44:55.936Z,3.40
2022-11-25T18:47:23.114Z,3.92
2022-11-25T18:49:55.420Z,3.28
2022-11-25T18:52:23.021Z,3.15
2022-11-25T18:54:49.801Z,3.47
2022-11-25T18:57:16.582Z,4.53
2022-11-25T18:59:45.305Z,3.75
2022-11-25T19:02:18.516Z,3.40
2022-11-25T19:04:45.487Z,3.97
2022-11-25T19:07:12.389Z,4.18
2022-11-25T19:09:39.188Z,3.47
2022-11-25T19:12:07.346Z,4.03
2022-11-25T19:14:37.842Z,3.75
2022-11-25T19:17:18.224Z,3.45
2022-11-25T19:19:46.619Z,4.40
2022-11-25T19:22:15.636Z,4.20
2022-11-25T19:24:42.972Z,3.00
2022-11-25T19:27:24.205Z,3.95
2022-11-25T19:29:53.018Z,3.72
2022-11-25T19:32:27.974Z,2.95
2022-11-25T19:35:03.928Z,3.42
2022-11-25T19:37:30.786Z,2.72
2022-11-25T19:39:57.785Z,3.63
2022-11-25T19:42:25.759Z,3.28
2022-11-25T19:44:55.257Z,3.00
2022-11-25T19:47:25.827Z,3.78
2022-11-25T19:49:59.638Z,4.05
2022-11-25T19:52:38.128Z,4.05
2022-11-25T19:55:16.255Z,3.55
2022-11-25T19:57:43.538Z,4.45
2022-11-25T20:00:13.229Z,4.35
2022-11-25T20:02:40.193Z,4.80
2022-11-25T20:05:08.860Z,3.80
2022-11-25T20:07:36.032Z,4.22
2022-11-25T20:10:25.951Z,4.55
2022-11-25T20:12:55.040Z,3.85
2022-11-25T20:15:22.967Z,5.22
2022-11-25T20:17:54.606Z,5.13
2022-11-25T20:20:31.777Z,4.50
2022-11-25T20:23:43.759Z,4.82
2022-11-25T20:26:26.120Z,3.53
2022-11-25T20:28:53.498Z,3.95
2022-11-25T20:31:20.428Z,4.32
2022-11-25T20:33:48.705Z,4.75
2022-11-25T20:36:19.976Z,4.22
2022-11-25T20:38:54.771Z,4.60
2022-11-25T20:41:27.645Z,4.18
2022-11-25T20:43:56.928Z,4.15
2022-11-25T20:46:29.177Z,3.88
2022-11-25T20:49:09.793Z,4.78
2022-11-25T20:51:37.036Z,4.40
2022-11-25T20:54:07.582Z,3.80
2022-11-25T20:56:35.355Z,4.53
2022-11-25T20:59:03.369Z,5.03
2022-11-25T21:01:30.510Z,4.55
2022-11-25T21:03:57.473Z,4.95
2022-11-25T21:06:29.880Z,4.90
2022-11-25T21:09:00.364Z,5.68
2022-11-25T21:11:28.046Z,5.25
2022-11-25T21:13:55.284Z,5.00
2022-11-25T21:16:22.325Z,5.70
2022-11-25T21:18:49.397Z,4.40
2022-11-25T21:21:22.644Z,5.05
2022-11-25T21:23:49.771Z,4.57
2022-11-25T21:26:24.240Z,5.05
2022-11-25T21:28:53.543Z,5.38
2022-11-25T21:31:26.041Z,5.00
2022-11-25T21:33:59.434Z,4.97
2022-11-25T21:36:29.818Z,3.90
2022-11-25T21:39:26.729Z,5.68
2022-11-25T21:41:54.885Z,5.53
2022-11-25T21:44:30.454Z,4.03
2022-11-25T21:46:57.568Z,4.97
2022-11-25T21:49:26.488Z,4.00
2022-11-25T21:51:53.580Z,4.65
2022-11-25T21:54:21.772Z,4.22
2022-11-25T21:56:49.172Z,5.47
2022-11-25T21:59:20.052Z,4.63
2022-11-25T22:01:47.696Z,4.30
2022-11-25T22:04:17.893Z,5.65
2022-11-25T22:06:45.476Z,4.57
2022-11-25T22:09:12.593Z,4.28
2022-11-25T22:11:44.264Z,6.18
2022-11-25T22:14:34.512Z,5.22
2022-11-25T22:17:06.647Z,5.47
2022-11-25T22:19:33.943Z,5.38
2022-11-25T22:22:00.889Z,6.20
2022-11-25T22:24:32.554Z,5.90
2022-11-25T22:26:59.395Z,4.47
2022-11-25T22:29:34.694Z,5.50
2022-11-25T22:32:05.899Z,5.40
2022-11-25T22:34:35.502Z,5.72
2022-11-25T22:37:02.436Z,4.93
2022-11-25T22:39:29.294Z,5.22
2022-11-25T22:42:07.467Z,5.53
2022-11-25T22:44:42.917Z,6.20
2022-11-25T22:47:31.721Z,6.57
2022-11-25T22:50:01.544Z,5.32
2022-11-25T22:52:35.601Z,5.32
2022-11-25T22:55:17.230Z,4.80
2022-11-25T22:57:44.448Z,5.38
2022-11-25T23:00:19.320Z,5.75
2022-11-25T23:02:47.388Z,6.18
2022-11-25T23:05:21.931Z,5.25
2022-11-25T23:07:48.725Z,5.93
2022-11-25T23:10:23.254Z,5.63
2022-11-25T23:12:50.353Z,5.40
2022-11-25T23:15:20.875Z,6.57
2022-11-25T23:17:56.465Z,6.10
2022-11-25T23:20:36.694Z,5.53
2022-11-25T23:23:18.345Z,5.30
2022-11-25T23:25:45.906Z,5.72
2022-11-25T23:28:12.929Z,6.07
2022-11-25T23:30:51.441Z,6.72
2022-11-25T23:33:49.643Z,6.03
2022-11-25T23:36:26.588Z,6.30
2022-11-25T23:38:59.418Z,6.43
2022-11-25T23:41:32.378Z,5.45
2022-11-25T23:44:13.819Z,6.95
2022-11-25T23:46:41.237Z,6.40
2022-11-25T23:49:20.856Z,6.65
2022-11-25T23:51:47.971Z,7.70
2022-11-25T23:54:18.346Z,6.35
2022-11-25T23:56:45.165Z,8.02
2022-11-25T23:59:16.720Z,6.97
